Kezdőlap
METAR-TAF:

METAR-TAF

Repülőterek :

Sankt Gallen, Svájc

földrajzi szélesség: 47-29-06N, földrajzi hosszúság: 009-33-43E, magasság: 398 m

Jelenlegi meteorológiai megfigyelések

A jelentés 35 perccel ezelõtt készült, 18:20 UTC
Különbözõ irányokból fújó szél 2 kt
Hőmérséklet 4°C
Páratartalom 81%
Légköri nyomás 1026 hPa
Látótávolság 10 km, vagy több
Kevés felhő 4500 lábon

METAR: LSZR 191820Z VRB02KT 9999 FEW045 04/01 Q1026 NOSIG RMK N

Idő: 19:55 (18:55 UTC)

Előrejelzés

A jelentés 4 órával és 30 perccel ezelõtt készült, 14:25 UTC
Az előrejelzés 19-én 15 óra UTC és 19-én 24 óra UTC között érvényes
Nyugati szél 10 kt
Látótávolság 10 km, vagy több
Kevés felhő 3000 lábon
Szakadozott felhőzet 4000 lábon
19-én 15 óra UTC és 19-én 18 óra UTC között ideiglenes
Nyugati szél 15 kt széllökések: 25 kt
záporok

TAF: LSZR 191425Z 1915/1924 26010KT 9999 FEW030 BKN040 TEMPO 1915/1918 27015G25KT SHRA

Meteorológiai megfigyelések és előrejelzések több, mint 4000 repülőtéren (METAR és TAF jelentéseket).

A térképen piros és sárga pontok jelzik az elérhető meteorológiai állomásokat.

Mozgassa az egeret a pont fölött, hogy megjelenjen az állomás neve.

Azután kattintson az időjárási megfigyelések és előrejelzések megtekintéséhez.

A térkép megváltoztatása: kattintson a fekete keresztel jelölt zöld gombra ráközelítéshez, a vonallal jelölt zöld gombra távolításhoz, vagy a zöld nyilakra a szomszédos térképek eléréséhez.


METAR-TAF: